Bee Cave, Texas
Current Conditions -  °F | °C
As of 10:55 PM on Saturday 20 Dec 2014 (Local Time) from KRYW Reporting Station
Haze Haze  
Wind Chill: 48°   Ceiling: 2000
Heat Index: 48°   Visibility: 4mi
Dew Point: 46°   Wind: 0mph
Humidity: 93%   Direction: NA
Pressure: 30.17"   Gusts: NA
Location:  30.3763°N, 97.9464°W
Report Text: KRYW 210455Z AUTO 00000KT 4SM BR OVC020 09/08 A3017 RMK AO2 T00900080
Loading
Personal Weather Stations






























Interactive Weather Map New forecast layout! Learn more

10-Day Weather Forecast

Advertisements
Track Severe Weather on mobile